sensor_id;sensor_type;location;lat;lon;timestamp;P1;durP1;ratioP1;P2;durP2;ratioP2
43710;SDS011;29309;42.682;23.372;2022-08-19T00:00:15;7.22;;;5.57;;
43710;SDS011;29309;42.682;23.372;2022-08-19T00:02:42;9.35;;;6.00;;
43710;SDS011;29309;42.682;23.372;2022-08-19T00:05:08;11.45;;;5.80;;
43710;SDS011;29309;42.682;23.372;2022-08-19T00:07:36;9.80;;;5.75;;
43710;SDS011;29309;42.682;23.372;2022-08-19T00:10:03;9.18;;;5.57;;
43710;SDS011;29309;42.682;23.372;2022-08-19T00:12:30;10.57;;;6.03;;
43710;SDS011;29309;42.682;23.372;2022-08-19T00:14:55;8.98;;;5.63;;
43710;SDS011;29309;42.682;23.372;2022-08-19T00:17:21;10.45;;;5.57;;
43710;SDS011;29309;42.682;23.372;2022-08-19T00:19:46;6.65;;;5.07;;
43710;SDS011;29309;42.682;23.372;2022-08-19T00:22:12;8.30;;;5.40;;
43710;SDS011;29309;42.682;23.372;2022-08-19T00:24:38;9.00;;;5.60;;
43710;SDS011;29309;42.682;23.372;2022-08-19T00:27:04;11.82;;;6.00;;
43710;SDS011;29309;42.682;23.372;2022-08-19T00:29:30;8.70;;;6.07;;
43710;SDS011;29309;42.682;23.372;2022-08-19T00:31:56;6.68;;;5.43;;
43710;SDS011;29309;42.682;23.372;2022-08-19T00:34:23;9.40;;;6.05;;
43710;SDS011;29309;42.682;23.372;2022-08-19T00:36:51;8.40;;;6.65;;
43710;SDS011;29309;42.682;23.372;2022-08-19T00:39:16;10.02;;;6.30;;
43710;SDS011;29309;42.682;23.372;2022-08-19T00:41:43;11.68;;;6.32;;
43710;SDS011;29309;42.682;23.372;2022-08-19T00:44:13;9.27;;;6.82;;
43710;SDS011;29309;42.682;23.372;2022-08-19T00:46:42;9.10;;;6.75;;
43710;SDS011;29309;42.682;23.372;2022-08-19T00:49:11;11.93;;;5.95;;
43710;SDS011;29309;42.682;23.372;2022-08-19T00:51:39;9.30;;;6.50;;
43710;SDS011;29309;42.682;23.372;2022-08-19T00:54:06;13.15;;;6.07;;
43710;SDS011;29309;42.682;23.372;2022-08-19T00:56:31;8.38;;;6.20;;
43710;SDS011;29309;42.682;23.372;2022-08-19T00:58:58;7.55;;;5.43;;
43710;SDS011;29309;42.682;23.372;2022-08-19T01:01:25;7.90;;;5.68;;
43710;SDS011;29309;42.682;23.372;2022-08-19T01:03:51;8.70;;;6.05;;
43710;SDS011;29309;42.682;23.372;2022-08-19T01:06:16;12.02;;;5.97;;
43710;SDS011;29309;42.682;23.372;2022-08-19T01:08:42;8.23;;;6.00;;
43710;SDS011;29309;42.682;23.372;2022-08-19T01:11:10;7.20;;;5.25;;
43710;SDS011;29309;42.682;23.372;2022-08-19T01:13:36;6.82;;;5.53;;
43710;SDS011;29309;42.682;23.372;2022-08-19T01:16:07;5.63;;;4.75;;
43710;SDS011;29309;42.682;23.372;2022-08-19T01:18:36;6.95;;;4.90;;
43710;SDS011;29309;42.682;23.372;2022-08-19T01:21:31;6.97;;;5.38;;
43710;SDS011;29309;42.682;23.372;2022-08-19T01:24:05;6.75;;;5.20;;
43710;SDS011;29309;42.682;23.372;2022-08-19T01:26:31;10.30;;;5.03;;
43710;SDS011;29309;42.682;23.372;2022-08-19T01:29:02;6.07;;;4.70;;
43710;SDS011;29309;42.682;23.372;2022-08-19T01:31:28;7.43;;;5.70;;
43710;SDS011;29309;42.682;23.372;2022-08-19T01:33:57;8.98;;;5.18;;
43710;SDS011;29309;42.682;23.372;2022-08-19T01:36:37;8.73;;;5.45;;
43710;SDS011;29309;42.682;23.372;2022-08-19T01:39:09;7.30;;;4.93;;
43710;SDS011;29309;42.682;23.372;2022-08-19T01:41:38;7.97;;;5.15;;
43710;SDS011;29309;42.682;23.372;2022-08-19T01:44:04;7.45;;;5.57;;
43710;SDS011;29309;42.682;23.372;2022-08-19T01:46:30;6.13;;;5.32;;
43710;SDS011;29309;42.682;23.372;2022-08-19T01:48:57;10.00;;;5.90;;
43710;SDS011;29309;42.682;23.372;2022-08-19T01:51:23;10.75;;;5.72;;
43710;SDS011;29309;42.682;23.372;2022-08-19T01:53:49;5.90;;;5.00;;
43710;SDS011;29309;42.682;23.372;2022-08-19T01:56:16;6.25;;;5.05;;
43710;SDS011;29309;42.682;23.372;2022-08-19T01:58:45;8.32;;;5.53;;
43710;SDS011;29309;42.682;23.372;2022-08-19T02:01:15;8.07;;;5.35;;
43710;SDS011;29309;42.682;23.372;2022-08-19T02:03:41;6.93;;;5.65;;
43710;SDS011;29309;42.682;23.372;2022-08-19T02:06:06;12.77;;;6.82;;
43710;SDS011;29309;42.682;23.372;2022-08-19T02:08:34;9.10;;;5.55;;
43710;SDS011;29309;42.682;23.372;2022-08-19T02:11:01;7.65;;;5.32;;
43710;SDS011;29309;42.682;23.372;2022-08-19T02:13:27;11.52;;;5.72;;
43710;SDS011;29309;42.682;23.372;2022-08-19T02:15:53;12.23;;;5.50;;
43710;SDS011;29309;42.682;23.372;2022-08-19T02:18:19;9.80;;;5.53;;
43710;SDS011;29309;42.682;23.372;2022-08-19T02:20:44;11.38;;;6.07;;
43710;SDS011;29309;42.682;23.372;2022-08-19T02:23:12;8.43;;;5.50;;
43710;SDS011;29309;42.682;23.372;2022-08-19T02:25:40;8.77;;;5.85;;
43710;SDS011;29309;42.682;23.372;2022-08-19T02:28:06;6.55;;;4.68;;
43710;SDS011;29309;42.682;23.372;2022-08-19T02:30:34;9.38;;;5.78;;
43710;SDS011;29309;42.682;23.372;2022-08-19T02:33:00;7.68;;;5.45;;
43710;SDS011;29309;42.682;23.372;2022-08-19T02:35:28;8.27;;;5.47;;
43710;SDS011;29309;42.682;23.372;2022-08-19T02:37:54;9.48;;;5.63;;
43710;SDS011;29309;42.682;23.372;2022-08-19T02:40:38;10.27;;;6.10;;
43710;SDS011;29309;42.682;23.372;2022-08-19T02:43:04;6.97;;;5.45;;
43710;SDS011;29309;42.682;23.372;2022-08-19T02:45:36;8.57;;;5.72;;
43710;SDS011;29309;42.682;23.372;2022-08-19T02:48:03;12.40;;;5.32;;
43710;SDS011;29309;42.682;23.372;2022-08-19T02:50:30;10.77;;;5.70;;
43710;SDS011;29309;42.682;23.372;2022-08-19T02:52:58;9.25;;;6.40;;
43710;SDS011;29309;42.682;23.372;2022-08-19T02:55:24;7.90;;;5.85;;
43710;SDS011;29309;42.682;23.372;2022-08-19T02:57:49;8.55;;;5.57;;
43710;SDS011;29309;42.682;23.372;2022-08-19T03:00:15;8.65;;;5.13;;
43710;SDS011;29309;42.682;23.372;2022-08-19T03:02:41;7.18;;;5.75;;
43710;SDS011;29309;42.682;23.372;2022-08-19T03:05:08;12.63;;;5.78;;
43710;SDS011;29309;42.682;23.372;2022-08-19T03:07:35;6.05;;;5.00;;
43710;SDS011;29309;42.682;23.372;2022-08-19T03:10:02;11.98;;;5.80;;
43710;SDS011;29309;42.682;23.372;2022-08-19T03:12:28;13.20;;;6.15;;
43710;SDS011;29309;42.682;23.372;2022-08-19T03:14:54;10.95;;;5.80;;
43710;SDS011;29309;42.682;23.372;2022-08-19T03:17:19;8.90;;;5.40;;
43710;SDS011;29309;42.682;23.372;2022-08-19T03:19:45;7.28;;;5.53;;
43710;SDS011;29309;42.682;23.372;2022-08-19T03:22:11;9.43;;;6.28;;
43710;SDS011;29309;42.682;23.372;2022-08-19T03:24:37;9.85;;;6.22;;
43710;SDS011;29309;42.682;23.372;2022-08-19T03:27:03;9.80;;;6.45;;
43710;SDS011;29309;42.682;23.372;2022-08-19T03:29:30;11.05;;;6.55;;
43710;SDS011;29309;42.682;23.372;2022-08-19T03:32:00;14.05;;;6.47;;
43710;SDS011;29309;42.682;23.372;2022-08-19T03:34:29;17.65;;;6.25;;
43710;SDS011;29309;42.682;23.372;2022-08-19T03:36:59;12.75;;;6.47;;
43710;SDS011;29309;42.682;23.372;2022-08-19T03:39:29;12.70;;;6.07;;
43710;SDS011;29309;42.682;23.372;2022-08-19T03:41:55;9.30;;;6.45;;
43710;SDS011;29309;42.682;23.372;2022-08-19T03:44:22;13.45;;;6.28;;
43710;SDS011;29309;42.682;23.372;2022-08-19T03:46:52;12.50;;;6.40;;
43710;SDS011;29309;42.682;23.372;2022-08-19T03:49:20;11.95;;;6.15;;
43710;SDS011;29309;42.682;23.372;2022-08-19T03:51:48;10.88;;;5.85;;
43710;SDS011;29309;42.682;23.372;2022-08-19T03:54:16;8.75;;;5.57;;
43710;SDS011;29309;42.682;23.372;2022-08-19T03:56:45;7.57;;;5.45;;
43710;SDS011;29309;42.682;23.372;2022-08-19T03:59:14;9.10;;;5.90;;
43710;SDS011;29309;42.682;23.372;2022-08-19T04:01:42;9.95;;;6.38;;
43710;SDS011;29309;42.682;23.372;2022-08-19T04:04:08;15.95;;;7.07;;
43710;SDS011;29309;42.682;23.372;2022-08-19T04:06:34;12.77;;;5.88;;
43710;SDS011;29309;42.682;23.372;2022-08-19T04:09:03;12.05;;;6.32;;
43710;SDS011;29309;42.682;23.372;2022-08-19T04:11:31;10.65;;;6.10;;
43710;SDS011;29309;42.682;23.372;2022-08-19T04:14:06;12.07;;;6.10;;
43710;SDS011;29309;42.682;23.372;2022-08-19T04:16:34;8.35;;;6.15;;
43710;SDS011;29309;42.682;23.372;2022-08-19T04:19:00;17.45;;;6.43;;
43710;SDS011;29309;42.682;23.372;2022-08-19T04:21:27;12.77;;;6.68;;
43710;SDS011;29309;42.682;23.372;2022-08-19T04:23:54;11.73;;;6.22;;
43710;SDS011;29309;42.682;23.372;2022-08-19T04:26:24;11.43;;;6.32;;
43710;SDS011;29309;42.682;23.372;2022-08-19T04:28:52;9.75;;;6.68;;
43710;SDS011;29309;42.682;23.372;2022-08-19T04:31:20;13.20;;;6.72;;
43710;SDS011;29309;42.682;23.372;2022-08-19T04:33:51;9.98;;;6.82;;
43710;SDS011;29309;42.682;23.372;2022-08-19T04:36:26;14.52;;;7.22;;
43710;SDS011;29309;42.682;23.372;2022-08-19T04:38:55;14.77;;;7.97;;
43710;SDS011;29309;42.682;23.372;2022-08-19T04:41:22;16.02;;;8.70;;
43710;SDS011;29309;42.682;23.372;2022-08-19T04:44:06;13.88;;;6.93;;
43710;SDS011;29309;42.682;23.372;2022-08-19T04:46:32;11.50;;;7.68;;
43710;SDS011;29309;42.682;23.372;2022-08-19T04:48:59;14.65;;;8.18;;
43710;SDS011;29309;42.682;23.372;2022-08-19T04:51:25;13.80;;;7.97;;
43710;SDS011;29309;42.682;23.372;2022-08-19T04:53:51;12.35;;;7.45;;
43710;SDS011;29309;42.682;23.372;2022-08-19T04:56:17;18.83;;;9.15;;
43710;SDS011;29309;42.682;23.372;2022-08-19T04:58:45;11.75;;;7.40;;
43710;SDS011;29309;42.682;23.372;2022-08-19T05:01:20;17.20;;;7.55;;
43710;SDS011;29309;42.682;23.372;2022-08-19T05:03:52;9.48;;;7.28;;
43710;SDS011;29309;42.682;23.372;2022-08-19T05:06:18;10.73;;;6.65;;
43710;SDS011;29309;42.682;23.372;2022-08-19T05:08:45;10.00;;;6.95;;
43710;SDS011;29309;42.682;23.372;2022-08-19T05:13:42;12.60;;;6.63;;
43710;SDS011;29309;42.682;23.372;2022-08-19T05:16:09;14.82;;;7.18;;
43710;SDS011;29309;42.682;23.372;2022-08-19T05:18:37;14.93;;;6.90;;
43710;SDS011;29309;42.682;23.372;2022-08-19T05:21:23;11.93;;;7.53;;
43710;SDS011;29309;42.682;23.372;2022-08-19T05:24:08;14.13;;;7.50;;
43710;SDS011;29309;42.682;23.372;2022-08-19T05:26:38;9.82;;;6.90;;
43710;SDS011;29309;42.682;23.372;2022-08-19T05:29:05;10.88;;;7.55;;
43710;SDS011;29309;42.682;23.372;2022-08-19T05:31:32;15.30;;;8.18;;
43710;SDS011;29309;42.682;23.372;2022-08-19T05:33:59;15.02;;;7.65;;
43710;SDS011;29309;42.682;23.372;2022-08-19T05:36:26;13.90;;;6.72;;
43710;SDS011;29309;42.682;23.372;2022-08-19T05:38:53;28.27;;;8.15;;
43710;SDS011;29309;42.682;23.372;2022-08-19T05:41:19;18.73;;;8.30;;
43710;SDS011;29309;42.682;23.372;2022-08-19T05:43:52;11.75;;;8.20;;
43710;SDS011;29309;42.682;23.372;2022-08-19T05:46:25;14.73;;;7.13;;
43710;SDS011;29309;42.682;23.372;2022-08-19T05:48:54;16.73;;;7.30;;
43710;SDS011;29309;42.682;23.372;2022-08-19T05:51:24;9.07;;;5.72;;
43710;SDS011;29309;42.682;23.372;2022-08-19T05:53:50;11.93;;;6.20;;
43710;SDS011;29309;42.682;23.372;2022-08-19T05:56:17;8.65;;;6.45;;
43710;SDS011;29309;42.682;23.372;2022-08-19T05:58:43;11.32;;;6.95;;
43710;SDS011;29309;42.682;23.372;2022-08-19T06:01:11;12.23;;;6.35;;
43710;SDS011;29309;42.682;23.372;2022-08-19T06:03:38;13.95;;;6.97;;
43710;SDS011;29309;42.682;23.372;2022-08-19T06:06:09;12.30;;;7.22;;
43710;SDS011;29309;42.682;23.372;2022-08-19T06:08:36;9.70;;;6.82;;
43710;SDS011;29309;42.682;23.372;2022-08-19T06:12:03;9.93;;;6.47;;
43710;SDS011;29309;42.682;23.372;2022-08-19T06:14:07;7.68;;;6.80;;
43710;SDS011;29309;42.682;23.372;2022-08-19T06:16:36;11.90;;;6.18;;
43710;SDS011;29309;42.682;23.372;2022-08-19T06:19:04;12.93;;;7.07;;
43710;SDS011;29309;42.682;23.372;2022-08-19T06:21:33;12.45;;;6.72;;
43710;SDS011;29309;42.682;23.372;2022-08-19T06:24:02;10.57;;;6.47;;
43710;SDS011;29309;42.682;23.372;2022-08-19T06:26:30;18.52;;;8.50;;
43710;SDS011;29309;42.682;23.372;2022-08-19T06:28:55;12.73;;;6.72;;
43710;SDS011;29309;42.682;23.372;2022-08-19T06:31:23;13.45;;;6.18;;
43710;SDS011;29309;42.682;23.372;2022-08-19T06:33:52;8.63;;;6.13;;
43710;SDS011;29309;42.682;23.372;2022-08-19T06:36:21;9.98;;;5.68;;
43710;SDS011;29309;42.682;23.372;2022-08-19T06:38:52;16.85;;;6.25;;
43710;SDS011;29309;42.682;23.372;2022-08-19T06:41:19;10.18;;;5.22;;
43710;SDS011;29309;42.682;23.372;2022-08-19T06:43:44;13.05;;;5.15;;
43710;SDS011;29309;42.682;23.372;2022-08-19T06:46:11;8.32;;;5.38;;
43710;SDS011;29309;42.682;23.372;2022-08-19T06:48:37;10.82;;;5.60;;
43710;SDS011;29309;42.682;23.372;2022-08-19T06:51:03;7.75;;;5.38;;
43710;SDS011;29309;42.682;23.372;2022-08-19T06:53:30;9.18;;;5.55;;
43710;SDS011;29309;42.682;23.372;2022-08-19T06:55:56;13.05;;;5.90;;
43710;SDS011;29309;42.682;23.372;2022-08-19T06:58:25;10.15;;;6.38;;
43710;SDS011;29309;42.682;23.372;2022-08-19T07:00:51;15.95;;;8.02;;
43710;SDS011;29309;42.682;23.372;2022-08-19T07:03:16;10.02;;;6.00;;
43710;SDS011;29309;42.682;23.372;2022-08-19T07:05:42;13.25;;;7.32;;
43710;SDS011;29309;42.682;23.372;2022-08-19T07:08:08;9.05;;;5.82;;
43710;SDS011;29309;42.682;23.372;2022-08-19T07:10:34;7.45;;;5.25;;
43710;SDS011;29309;42.682;23.372;2022-08-19T07:13:01;10.27;;;5.03;;
43710;SDS011;29309;42.682;23.372;2022-08-19T07:15:28;13.38;;;5.60;;
43710;SDS011;29309;42.682;23.372;2022-08-19T07:17:53;6.60;;;5.22;;
43710;SDS011;29309;42.682;23.372;2022-08-19T07:20:19;6.88;;;5.50;;
43710;SDS011;29309;42.682;23.372;2022-08-19T07:22:44;11.48;;;5.20;;
43710;SDS011;29309;42.682;23.372;2022-08-19T07:25:10;9.95;;;5.70;;
43710;SDS011;29309;42.682;23.372;2022-08-19T07:27:41;6.68;;;5.20;;
43710;SDS011;29309;42.682;23.372;2022-08-19T07:30:07;11.43;;;5.00;;
43710;SDS011;29309;42.682;23.372;2022-08-19T07:32:33;8.57;;;5.18;;
43710;SDS011;29309;42.682;23.372;2022-08-19T07:35:02;9.07;;;5.07;;
43710;SDS011;29309;42.682;23.372;2022-08-19T07:37:28;9.70;;;5.43;;
43710;SDS011;29309;42.682;23.372;2022-08-19T07:39:53;9.57;;;5.53;;
43710;SDS011;29309;42.682;23.372;2022-08-19T07:42:19;12.25;;;5.70;;
43710;SDS011;29309;42.682;23.372;2022-08-19T07:44:46;16.17;;;6.07;;
43710;SDS011;29309;42.682;23.372;2022-08-19T07:47:11;11.02;;;6.03;;
43710;SDS011;29309;42.682;23.372;2022-08-19T07:49:38;8.52;;;5.22;;
43710;SDS011;29309;42.682;23.372;2022-08-19T07:52:05;7.93;;;4.88;;
43710;SDS011;29309;42.682;23.372;2022-08-19T07:54:33;10.10;;;5.65;;
43710;SDS011;29309;42.682;23.372;2022-08-19T07:57:00;10.57;;;4.97;;
43710;SDS011;29309;42.682;23.372;2022-08-19T07:59:30;7.80;;;4.93;;
43710;SDS011;29309;42.682;23.372;2022-08-19T08:01:56;9.20;;;5.35;;
43710;SDS011;29309;42.682;23.372;2022-08-19T08:04:25;10.75;;;4.65;;
43710;SDS011;29309;42.682;23.372;2022-08-19T08:07:10;9.32;;;4.57;;
43710;SDS011;29309;42.682;23.372;2022-08-19T08:09:54;12.48;;;5.00;;
43710;SDS011;29309;42.682;23.372;2022-08-19T08:12:31;6.90;;;5.15;;
43710;SDS011;29309;42.682;23.372;2022-08-19T08:15:00;8.60;;;4.80;;
43710;SDS011;29309;42.682;23.372;2022-08-19T08:17:29;8.10;;;5.28;;
43710;SDS011;29309;42.682;23.372;2022-08-19T08:19:55;6.75;;;4.85;;
43710;SDS011;29309;42.682;23.372;2022-08-19T08:22:22;12.85;;;5.32;;
43710;SDS011;29309;42.682;23.372;2022-08-19T08:25:11;6.50;;;5.07;;
43710;SDS011;29309;42.682;23.372;2022-08-19T08:27:40;11.27;;;4.90;;
43710;SDS011;29309;42.682;23.372;2022-08-19T08:30:07;8.05;;;4.70;;
43710;SDS011;29309;42.682;23.372;2022-08-19T08:32:38;10.88;;;5.10;;
43710;SDS011;29309;42.682;23.372;2022-08-19T08:35:06;7.70;;;4.85;;
43710;SDS011;29309;42.682;23.372;2022-08-19T08:37:34;6.50;;;4.30;;
43710;SDS011;29309;42.682;23.372;2022-08-19T08:40:03;13.52;;;5.55;;
43710;SDS011;29309;42.682;23.372;2022-08-19T08:42:32;7.45;;;4.53;;
43710;SDS011;29309;42.682;23.372;2022-08-19T08:45:12;8.82;;;4.38;;
43710;SDS011;29309;42.682;23.372;2022-08-19T08:47:41;6.60;;;4.40;;
43710;SDS011;29309;42.682;23.372;2022-08-19T08:53:03;7.05;;;4.30;;
43710;SDS011;29309;42.682;23.372;2022-08-19T08:55:36;11.43;;;4.85;;
43710;SDS011;29309;42.682;23.372;2022-08-19T08:58:45;11.55;;;4.35;;
43710;SDS011;29309;42.682;23.372;2022-08-19T09:00:54;9.80;;;4.45;;
43710;SDS011;29309;42.682;23.372;2022-08-19T09:03:25;6.00;;;4.53;;
43710;SDS011;29309;42.682;23.372;2022-08-19T09:06:03;8.82;;;4.18;;
43710;SDS011;29309;42.682;23.372;2022-08-19T09:14:52;6.57;;;4.00;;
43710;SDS011;29309;42.682;23.372;2022-08-19T09:17:32;6.65;;;4.20;;
43710;SDS011;29309;42.682;23.372;2022-08-19T09:20:03;6.22;;;4.20;;
43710;SDS011;29309;42.682;23.372;2022-08-19T09:22:40;4.72;;;4.03;;
43710;SDS011;29309;42.682;23.372;2022-08-19T09:25:10;5.18;;;3.80;;
43710;SDS011;29309;42.682;23.372;2022-08-19T09:27:39;5.68;;;3.60;;
43710;SDS011;29309;42.682;23.372;2022-08-19T09:30:06;6.32;;;3.67;;
43710;SDS011;29309;42.682;23.372;2022-08-19T09:32:33;7.35;;;3.78;;
43710;SDS011;29309;42.682;23.372;2022-08-19T09:34:59;3.63;;;3.15;;
43710;SDS011;29309;42.682;23.372;2022-08-19T09:37:27;4.30;;;3.38;;
43710;SDS011;29309;42.682;23.372;2022-08-19T09:39:53;8.38;;;2.95;;
43710;SDS011;29309;42.682;23.372;2022-08-19T09:42:19;5.10;;;3.10;;
43710;SDS011;29309;42.682;23.372;2022-08-19T09:44:45;3.47;;;3.03;;
43710;SDS011;29309;42.682;23.372;2022-08-19T09:47:12;3.40;;;3.08;;
43710;SDS011;29309;42.682;23.372;2022-08-19T09:49:39;3.80;;;3.03;;
43710;SDS011;29309;42.682;23.372;2022-08-19T09:52:05;3.53;;;2.97;;
43710;SDS011;29309;42.682;23.372;2022-08-19T09:54:33;5.45;;;2.90;;
43710;SDS011;29309;42.682;23.372;2022-08-19T09:56:59;5.22;;;3.00;;
43710;SDS011;29309;42.682;23.372;2022-08-19T09:59:26;3.90;;;3.03;;
43710;SDS011;29309;42.682;23.372;2022-08-19T10:01:52;3.83;;;2.88;;
43710;SDS011;29309;42.682;23.372;2022-08-19T10:04:18;9.60;;;2.72;;
43710;SDS011;29309;42.682;23.372;2022-08-19T10:06:46;4.10;;;2.80;;
43710;SDS011;29309;42.682;23.372;2022-08-19T10:09:13;3.53;;;2.63;;
43710;SDS011;29309;42.682;23.372;2022-08-19T10:11:42;4.60;;;2.58;;
43710;SDS011;29309;42.682;23.372;2022-08-19T10:14:13;7.53;;;3.30;;
43710;SDS011;29309;42.682;23.372;2022-08-19T10:16:39;3.47;;;3.17;;
43710;SDS011;29309;42.682;23.372;2022-08-19T10:19:06;4.82;;;2.75;;
43710;SDS011;29309;42.682;23.372;2022-08-19T10:21:32;3.17;;;2.70;;
43710;SDS011;29309;42.682;23.372;2022-08-19T10:24:01;5.15;;;3.40;;
43710;SDS011;29309;42.682;23.372;2022-08-19T10:26:35;5.28;;;3.20;;
43710;SDS011;29309;42.682;23.372;2022-08-19T10:29:04;4.45;;;3.00;;
43710;SDS011;29309;42.682;23.372;2022-08-19T10:31:31;4.35;;;3.63;;
43710;SDS011;29309;42.682;23.372;2022-08-19T10:33:58;7.45;;;3.40;;
43710;SDS011;29309;42.682;23.372;2022-08-19T10:36:29;7.88;;;3.50;;
43710;SDS011;29309;42.682;23.372;2022-08-19T10:38:58;5.00;;;3.67;;
43710;SDS011;29309;42.682;23.372;2022-08-19T10:41:27;5.63;;;3.67;;
43710;SDS011;29309;42.682;23.372;2022-08-19T10:43:55;3.92;;;3.17;;
43710;SDS011;29309;42.682;23.372;2022-08-19T10:46:24;8.98;;;3.03;;
43710;SDS011;29309;42.682;23.372;2022-08-19T10:48:52;6.43;;;3.28;;
43710;SDS011;29309;42.682;23.372;2022-08-19T10:51:18;4.57;;;3.10;;
43710;SDS011;29309;42.682;23.372;2022-08-19T10:54:03;6.13;;;3.42;;
43710;SDS011;29309;42.682;23.372;2022-08-19T10:56:28;4.32;;;3.05;;
43710;SDS011;29309;42.682;23.372;2022-08-19T10:59:13;5.47;;;3.47;;
43710;SDS011;29309;42.682;23.372;2022-08-19T11:01:40;5.97;;;3.75;;
43710;SDS011;29309;42.682;23.372;2022-08-19T11:04:11;3.78;;;3.28;;
43710;SDS011;29309;42.682;23.372;2022-08-19T11:06:41;4.15;;;3.47;;
43710;SDS011;29309;42.682;23.372;2022-08-19T11:09:08;8.43;;;3.70;;
43710;SDS011;29309;42.682;23.372;2022-08-19T11:11:35;5.50;;;3.53;;
43710;SDS011;29309;42.682;23.372;2022-08-19T11:19:17;3.75;;;3.30;;
43710;SDS011;29309;42.682;23.372;2022-08-19T11:21:45;4.55;;;3.28;;
43710;SDS011;29309;42.682;23.372;2022-08-19T11:24:22;6.00;;;3.30;;
43710;SDS011;29309;42.682;23.372;2022-08-19T11:27:04;7.47;;;3.40;;
43710;SDS011;29309;42.682;23.372;2022-08-19T11:29:44;9.80;;;3.75;;
43710;SDS011;29309;42.682;23.372;2022-08-19T11:32:10;4.10;;;3.67;;
43710;SDS011;29309;42.682;23.372;2022-08-19T11:34:36;3.60;;;3.30;;
43710;SDS011;29309;42.682;23.372;2022-08-19T11:37:02;4.88;;;4.00;;
43710;SDS011;29309;42.682;23.372;2022-08-19T11:39:29;4.93;;;3.35;;
43710;SDS011;29309;42.682;23.372;2022-08-19T11:41:59;5.80;;;3.83;;
43710;SDS011;29309;42.682;23.372;2022-08-19T11:44:27;7.70;;;4.32;;
43710;SDS011;29309;42.682;23.372;2022-08-19T11:46:55;5.55;;;3.60;;
43710;SDS011;29309;42.682;23.372;2022-08-19T11:49:21;5.72;;;3.55;;
43710;SDS011;29309;42.682;23.372;2022-08-19T11:51:49;5.05;;;3.83;;
43710;SDS011;29309;42.682;23.372;2022-08-19T11:54:15;6.05;;;3.90;;
43710;SDS011;29309;42.682;23.372;2022-08-19T11:56:42;6.90;;;4.10;;
43710;SDS011;29309;42.682;23.372;2022-08-19T11:59:13;3.55;;;3.17;;
43710;SDS011;29309;42.682;23.372;2022-08-19T12:01:38;6.93;;;4.15;;
43710;SDS011;29309;42.682;23.372;2022-08-19T12:04:05;3.78;;;3.35;;
43710;SDS011;29309;42.682;23.372;2022-08-19T12:06:32;4.50;;;3.55;;
43710;SDS011;29309;42.682;23.372;2022-08-19T12:09:02;4.43;;;3.63;;
43710;SDS011;29309;42.682;23.372;2022-08-19T12:11:30;6.45;;;4.00;;
43710;SDS011;29309;42.682;23.372;2022-08-19T12:14:10;7.05;;;3.42;;
43710;SDS011;29309;42.682;23.372;2022-08-19T12:16:39;7.50;;;4.05;;
43710;SDS011;29309;42.682;23.372;2022-08-19T12:19:08;4.90;;;3.60;;
43710;SDS011;29309;42.682;23.372;2022-08-19T12:21:34;4.13;;;3.72;;
43710;SDS011;29309;42.682;23.372;2022-08-19T12:24:01;10.57;;;3.80;;
43710;SDS011;29309;42.682;23.372;2022-08-19T12:26:28;5.90;;;4.15;;
43710;SDS011;29309;42.682;23.372;2022-08-19T12:28:56;5.72;;;4.00;;
43710;SDS011;29309;42.682;23.372;2022-08-19T12:31:24;8.23;;;4.53;;
43710;SDS011;29309;42.682;23.372;2022-08-19T12:33:51;9.82;;;4.30;;
43710;SDS011;29309;42.682;23.372;2022-08-19T12:36:17;5.13;;;4.63;;
43710;SDS011;29309;42.682;23.372;2022-08-19T12:38:44;6.25;;;3.78;;
43710;SDS011;29309;42.682;23.372;2022-08-19T12:41:11;5.63;;;4.40;;
43710;SDS011;29309;42.682;23.372;2022-08-19T12:43:38;5.20;;;3.53;;
43710;SDS011;29309;42.682;23.372;2022-08-19T12:46:04;7.57;;;3.83;;
43710;SDS011;29309;42.682;23.372;2022-08-19T12:48:31;6.07;;;3.80;;
43710;SDS011;29309;42.682;23.372;2022-08-19T12:50:58;4.50;;;3.90;;
43710;SDS011;29309;42.682;23.372;2022-08-19T12:53:23;5.82;;;3.28;;
43710;SDS011;29309;42.682;23.372;2022-08-19T12:55:56;7.50;;;3.83;;
43710;SDS011;29309;42.682;23.372;2022-08-19T12:58:23;4.97;;;3.58;;
43710;SDS011;29309;42.682;23.372;2022-08-19T13:00:48;6.03;;;3.78;;
43710;SDS011;29309;42.682;23.372;2022-08-19T13:03:14;5.72;;;3.60;;
43710;SDS011;29309;42.682;23.372;2022-08-19T13:05:40;4.28;;;3.72;;
43710;SDS011;29309;42.682;23.372;2022-08-19T13:08:06;5.72;;;3.97;;
43710;SDS011;29309;42.682;23.372;2022-08-19T13:10:32;10.35;;;4.80;;
43710;SDS011;29309;42.682;23.372;2022-08-19T13:13:00;5.22;;;3.78;;
43710;SDS011;29309;42.682;23.372;2022-08-19T13:15:36;7.32;;;4.00;;
43710;SDS011;29309;42.682;23.372;2022-08-19T13:18:10;4.78;;;3.67;;
43710;SDS011;29309;42.682;23.372;2022-08-19T13:20:37;4.15;;;3.65;;
43710;SDS011;29309;42.682;23.372;2022-08-19T13:23:05;5.72;;;3.90;;
43710;SDS011;29309;42.682;23.372;2022-08-19T13:25:31;5.88;;;4.18;;
43710;SDS011;29309;42.682;23.372;2022-08-19T13:28:03;6.30;;;3.90;;
43710;SDS011;29309;42.682;23.372;2022-08-19T13:30:31;5.60;;;3.80;;
43710;SDS011;29309;42.682;23.372;2022-08-19T13:33:16;5.50;;;4.53;;
43710;SDS011;29309;42.682;23.372;2022-08-19T13:35:49;8.95;;;3.95;;
43710;SDS011;29309;42.682;23.372;2022-08-19T13:38:20;6.03;;;4.00;;
43710;SDS011;29309;42.682;23.372;2022-08-19T13:40:46;5.38;;;3.75;;
43710;SDS011;29309;42.682;23.372;2022-08-19T13:43:15;5.47;;;3.97;;
43710;SDS011;29309;42.682;23.372;2022-08-19T13:45:42;5.95;;;3.80;;
43710;SDS011;29309;42.682;23.372;2022-08-19T13:48:08;7.80;;;4.07;;
43710;SDS011;29309;42.682;23.372;2022-08-19T13:50:35;6.05;;;3.88;;
43710;SDS011;29309;42.682;23.372;2022-08-19T13:53:05;4.55;;;4.05;;
43710;SDS011;29309;42.682;23.372;2022-08-19T13:55:31;6.60;;;4.15;;
43710;SDS011;29309;42.682;23.372;2022-08-19T13:57:59;6.38;;;3.72;;
43710;SDS011;29309;42.682;23.372;2022-08-19T14:00:31;9.55;;;5.95;;
43710;SDS011;29309;42.682;23.372;2022-08-19T14:03:02;9.30;;;4.38;;
43710;SDS011;29309;42.682;23.372;2022-08-19T14:05:30;8.50;;;4.50;;
43710;SDS011;29309;42.682;23.372;2022-08-19T14:07:59;9.05;;;4.13;;
43710;SDS011;29309;42.682;23.372;2022-08-19T14:10:25;4.82;;;3.65;;
43710;SDS011;29309;42.682;23.372;2022-08-19T14:12:52;7.90;;;4.00;;
43710;SDS011;29309;42.682;23.372;2022-08-19T14:15:20;7.28;;;3.85;;
43710;SDS011;29309;42.682;23.372;2022-08-19T14:17:46;4.72;;;3.90;;
43710;SDS011;29309;42.682;23.372;2022-08-19T14:20:13;4.53;;;4.00;;
43710;SDS011;29309;42.682;23.372;2022-08-19T14:22:40;7.32;;;4.10;;
43710;SDS011;29309;42.682;23.372;2022-08-19T14:25:07;10.30;;;4.13;;
43710;SDS011;29309;42.682;23.372;2022-08-19T14:27:35;16.40;;;4.35;;
43710;SDS011;29309;42.682;23.372;2022-08-19T14:30:05;8.48;;;3.75;;
43710;SDS011;29309;42.682;23.372;2022-08-19T14:32:32;7.53;;;4.15;;
43710;SDS011;29309;42.682;23.372;2022-08-19T14:34:58;9.43;;;4.28;;
43710;SDS011;29309;42.682;23.372;2022-08-19T14:37:23;11.00;;;4.45;;
43710;SDS011;29309;42.682;23.372;2022-08-19T14:39:50;5.15;;;4.15;;
43710;SDS011;29309;42.682;23.372;2022-08-19T14:42:17;10.10;;;4.18;;
43710;SDS011;29309;42.682;23.372;2022-08-19T14:44:42;8.50;;;4.10;;
43710;SDS011;29309;42.682;23.372;2022-08-19T14:47:08;4.40;;;4.00;;
43710;SDS011;29309;42.682;23.372;2022-08-19T14:49:34;8.20;;;4.25;;
43710;SDS011;29309;42.682;23.372;2022-08-19T14:52:00;8.95;;;4.47;;
43710;SDS011;29309;42.682;23.372;2022-08-19T14:54:26;4.60;;;3.90;;